createdAt,value
2023-04-01T00:00:17.461Z,76.70
2023-04-01T00:03:10.770Z,74.65
2023-04-01T00:05:44.223Z,74.74
2023-04-01T00:08:18.230Z,76.36
2023-04-01T00:10:51.904Z,74.48
2023-04-01T00:13:27.223Z,73.48
2023-04-01T00:16:03.128Z,73.63
2023-04-01T00:18:36.608Z,73.51
2023-04-01T00:21:10.297Z,73.56
2023-04-01T00:23:43.560Z,73.88
2023-04-01T00:26:20.749Z,73.63
2023-04-01T00:28:54.446Z,73.40
2023-04-01T00:31:28.069Z,73.34
2023-04-01T00:34:01.316Z,73.09
2023-04-01T00:36:34.761Z,72.88
2023-04-01T00:39:08.309Z,72.91
2023-04-01T00:41:42.945Z,72.69
2023-04-01T00:44:22.020Z,72.81
2023-04-01T00:46:55.399Z,72.69
2023-04-01T00:49:34.098Z,72.34
2023-04-01T00:52:10.157Z,72.06
2023-04-01T00:54:48.268Z,71.98
2023-04-01T00:57:32.933Z,71.82
2023-04-01T01:00:12.874Z,71.66
2023-04-01T01:02:48.004Z,71.56
2023-04-01T01:05:25.101Z,71.60
2023-04-01T01:08:17.452Z,71.57
2023-04-01T01:10:53.792Z,71.72
2023-04-01T01:13:56.195Z,71.80
2023-04-01T01:16:33.333Z,71.80
2023-04-01T01:19:30.601Z,72.09
2023-04-01T01:22:31.991Z,72.74
2023-04-01T01:25:34.282Z,72.95
2023-04-01T01:28:42.435Z,73.25
2023-04-01T01:31:31.506Z,73.14
2023-04-01T01:34:10.634Z,72.80
2023-04-01T01:36:48.042Z,73.19
2023-04-01T01:39:28.788Z,73.65
2023-04-01T01:42:08.683Z,73.60
2023-04-01T01:44:43.481Z,73.83
2023-04-01T01:47:18.477Z,73.60
2023-04-01T01:49:53.522Z,73.33
2023-04-01T01:52:30.000Z,73.59
2023-04-01T01:55:03.253Z,74.20
2023-04-01T01:57:48.830Z,76.04
2023-04-01T02:00:24.756Z,74.99
2023-04-01T02:03:00.574Z,76.19
2023-04-01T02:05:34.743Z,75.05
2023-04-01T02:08:43.220Z,75.08
2023-04-01T02:11:23.424Z,75.29
2023-04-01T02:14:00.205Z,75.97
2023-04-01T02:16:49.799Z,74.71
2023-04-01T02:19:25.516Z,73.84
2023-04-01T02:22:05.925Z,74.52
2023-04-01T02:24:42.052Z,75.35
2023-04-01T02:27:15.643Z,76.14
2023-04-01T02:29:48.912Z,75.29
2023-04-01T02:32:22.867Z,74.45
2023-04-01T02:34:56.512Z,73.90
2023-04-01T02:37:32.336Z,73.18
2023-04-01T02:40:09.863Z,73.29
2023-04-01T02:42:42.791Z,73.20
2023-04-01T02:45:17.254Z,73.53
2023-04-01T02:47:50.197Z,76.46
2023-04-01T02:50:23.274Z,76.63
2023-04-01T02:52:57.782Z,74.52
2023-04-01T02:55:32.734Z,74.46
2023-04-01T02:58:06.916Z,74.36
2023-04-01T03:00:41.533Z,74.20
2023-04-01T03:03:16.228Z,73.93
2023-04-01T03:05:50.092Z,74.15
2023-04-01T03:08:24.148Z,74.18
2023-04-01T03:10:59.505Z,74.36
2023-04-01T03:13:33.553Z,74.70
2023-04-01T03:16:06.913Z,74.25
2023-04-01T03:18:41.963Z,74.38
2023-04-01T03:21:19.770Z,73.73
2023-04-01T03:23:53.681Z,73.07
2023-04-01T03:26:28.781Z,74.32
2023-04-01T03:29:02.961Z,75.37
2023-04-01T03:31:36.994Z,79.67
2023-04-01T03:34:11.473Z,79.88
2023-04-01T03:36:45.157Z,78.12
2023-04-01T03:39:20.347Z,76.14
2023-04-01T03:41:53.968Z,76.07
2023-04-01T03:44:27.870Z,78.01
2023-04-01T03:47:02.464Z,77.22
2023-04-01T03:49:36.094Z,75.73
2023-04-01T03:52:15.706Z,75.04
2023-04-01T03:54:48.983Z,74.67
2023-04-01T03:57:22.936Z,74.56
2023-04-01T03:59:56.222Z,74.40
2023-04-01T04:02:30.108Z,74.16
2023-04-01T04:05:04.003Z,74.10
2023-04-01T04:07:38.551Z,73.68
2023-04-01T04:10:14.230Z,73.57
2023-04-01T04:12:47.280Z,75.48
2023-04-01T04:15:21.391Z,77.24
2023-04-01T04:17:54.629Z,75.51
2023-04-01T04:20:28.759Z,75.57
2023-04-01T04:23:03.372Z,78.73
2023-04-01T04:25:38.165Z,76.69
2023-04-01T04:28:11.537Z,75.80
2023-04-01T04:30:44.987Z,77.50
2023-04-01T04:33:18.008Z,75.68
2023-04-01T04:35:51.449Z,77.09
2023-04-01T04:38:24.849Z,77.12
2023-04-01T04:40:58.321Z,78.77
2023-04-01T04:43:30.904Z,78.27
2023-04-01T04:46:07.048Z,78.32
2023-04-01T04:48:40.359Z,77.21
2023-04-01T04:51:17.530Z,79.51
2023-04-01T04:53:52.688Z,78.57
2023-04-01T04:56:27.521Z,77.80
2023-04-01T04:59:09.991Z,78.60
2023-04-01T05:01:58.362Z,77.93
2023-04-01T05:04:32.197Z,78.84
2023-04-01T05:07:05.756Z,77.90
2023-04-01T05:09:39.151Z,78.54
2023-04-01T05:12:14.657Z,76.25
2023-04-01T05:15:05.626Z,77.30
2023-04-01T05:17:39.404Z,78.55
2023-04-01T05:20:14.675Z,78.47
2023-04-01T05:22:48.240Z,77.95
2023-04-01T05:25:20.944Z,77.78
2023-04-01T05:27:54.341Z,78.07
2023-04-01T05:30:27.894Z,78.85
2023-04-01T05:33:07.119Z,77.23
2023-04-01T05:35:40.049Z,77.09
2023-04-01T05:38:12.850Z,75.32
2023-04-01T05:40:46.379Z,75.99
2023-04-01T05:43:20.025Z,76.37
2023-04-01T05:45:53.634Z,76.96
2023-04-01T05:48:45.915Z,76.91
2023-04-01T05:51:18.935Z,76.16
2023-04-01T05:53:52.541Z,75.94
2023-04-01T05:56:26.369Z,74.77
2023-04-01T05:59:00.152Z,74.20
2023-04-01T06:01:34.094Z,74.22
2023-04-01T06:04:17.485Z,73.94
2023-04-01T06:06:53.056Z,72.84
2023-04-01T06:09:37.286Z,72.63
2023-04-01T06:12:31.201Z,72.37
2023-04-01T06:15:26.416Z,71.82
2023-04-01T06:18:40.557Z,71.43
2023-04-01T06:21:54.665Z,71.06
2023-04-01T06:24:51.868Z,71.15
2023-04-01T06:28:08.985Z,71.12
2023-04-01T06:31:01.995Z,70.56
2023-04-01T06:33:56.348Z,70.05
2023-04-01T06:36:39.273Z,69.67
2023-04-01T06:39:47.608Z,69.34
2023-04-01T06:42:47.043Z,68.66
2023-04-01T06:45:51.877Z,68.63
2023-04-01T06:48:55.288Z,68.64
2023-04-01T06:52:10.175Z,68.90
2023-04-01T06:55:43.297Z,69.39
2023-04-01T06:58:34.415Z,68.93
2023-04-01T07:01:16.629Z,68.88
2023-04-01T07:04:04.225Z,68.60
2023-04-01T07:06:49.698Z,68.63
2023-04-01T07:09:56.453Z,68.40
2023-04-01T07:12:49.895Z,67.74
2023-04-01T07:16:03.765Z,67.70
2023-04-01T07:19:03.044Z,67.83
2023-04-01T07:22:03.853Z,67.61
2023-04-01T07:24:52.774Z,67.19
2023-04-01T07:27:27.676Z,67.19
2023-04-01T07:30:04.095Z,67.01
2023-04-01T07:32:52.184Z,66.76
2023-04-01T07:35:25.647Z,66.71
2023-04-01T07:38:16.944Z,66.68
2023-04-01T07:41:07.148Z,66.71
2023-04-01T07:44:14.312Z,66.78
2023-04-01T07:47:07.875Z,66.78
2023-04-01T07:49:59.967Z,66.71
2023-04-01T07:52:58.844Z,66.48
2023-04-01T07:55:59.525Z,66.66
2023-04-01T07:58:55.824Z,66.63
2023-04-01T08:02:01.636Z,66.44
2023-04-01T08:05:07.945Z,66.44
2023-04-01T08:08:03.408Z,66.99
2023-04-01T08:11:26.872Z,67.15
2023-04-01T08:14:50.660Z,67.77
2023-04-01T08:18:31.977Z,67.50
2023-04-01T08:21:08.652Z,69.23
2023-04-01T08:23:47.698Z,68.72
2023-04-01T08:26:31.270Z,68.67
2023-04-01T08:29:25.507Z,69.39
2023-04-01T08:32:19.384Z,69.18
2023-04-01T08:35:13.507Z,70.02
2023-04-01T08:37:50.141Z,69.62
2023-04-01T08:41:01.842Z,68.57
2023-04-01T08:44:14.238Z,70.28
2023-04-01T08:47:00.464Z,69.90
2023-04-01T08:50:00.952Z,70.43
2023-04-01T08:53:18.386Z,71.49
2023-04-01T08:56:13.715Z,70.89
2023-04-01T08:59:16.964Z,70.91
2023-04-01T09:01:59.720Z,70.96
2023-04-01T09:05:29.754Z,70.22
2023-04-01T09:08:25.974Z,69.33
2023-04-01T09:11:29.670Z,69.42
2023-04-01T09:14:12.467Z,69.57
2023-04-01T09:17:16.241Z,69.82
2023-04-01T09:20:33.519Z,70.19
2023-04-01T09:23:39.301Z,69.43
2023-04-01T09:26:21.809Z,69.50
2023-04-01T09:29:20.939Z,69.26
2023-04-01T09:32:29.510Z,68.94
2023-04-01T09:35:31.428Z,69.17
2023-04-01T09:38:24.522Z,69.00
2023-04-01T09:41:38.523Z,68.65
2023-04-01T09:45:01.596Z,68.87
2023-04-01T09:48:16.812Z,69.16
2023-04-01T09:51:09.283Z,70.86
2023-04-01T09:54:05.485Z,69.94
2023-04-01T09:57:14.327Z,69.77
2023-04-01T10:00:06.558Z,69.04
2023-04-01T10:03:10.990Z,68.43
2023-04-01T10:06:20.751Z,67.88
2023-04-01T10:09:02.887Z,67.07
2023-04-01T10:12:03.842Z,66.59
2023-04-01T10:15:09.825Z,65.90
2023-04-01T10:18:06.727Z,65.19
2023-04-01T10:21:09.109Z,65.12
2023-04-01T10:23:55.077Z,65.23
2023-04-01T10:26:58.200Z,65.22
2023-04-01T10:30:10.523Z,65.06
2023-04-01T10:33:19.771Z,64.85
2023-04-01T10:36:13.580Z,64.51
2023-04-01T10:39:16.676Z,64.33
2023-04-01T10:41:56.438Z,63.54
2023-04-01T10:45:08.595Z,63.06
2023-04-01T10:48:15.848Z,63.67
2023-04-01T10:51:24.310Z,63.86
2023-04-01T10:54:34.261Z,63.83
2023-04-01T10:57:55.065Z,63.83
2023-04-01T11:01:37.258Z,63.80
2023-04-01T11:05:02.064Z,63.70
2023-04-01T11:08:33.512Z,63.68
2023-04-01T11:11:39.298Z,63.81
2023-04-01T11:14:44.927Z,63.97
2023-04-01T11:17:56.336Z,63.95
2023-04-01T11:20:42.439Z,64.13
2023-04-01T11:23:30.264Z,64.19
2023-04-01T11:26:27.720Z,64.25
2023-04-01T11:29:33.079Z,64.40
2023-04-01T11:32:44.771Z,64.77
2023-04-01T11:35:58.644Z,64.95
2023-04-01T11:38:37.056Z,65.14
2023-04-01T11:42:22.204Z,65.53
2023-04-01T11:45:40.152Z,65.68
2023-04-01T11:48:31.761Z,65.97
2023-04-01T11:51:32.471Z,66.23
2023-04-01T11:54:22.670Z,66.50
2023-04-01T11:57:03.481Z,66.97
2023-04-01T12:00:05.505Z,67.43
2023-04-01T12:03:22.341Z,67.88
2023-04-01T12:06:17.430Z,67.71
2023-04-01T12:09:23.487Z,67.42
2023-04-01T12:12:25.292Z,68.59
2023-04-01T12:15:23.667Z,68.55
2023-04-01T12:18:22.205Z,68.29
2023-04-01T12:21:10.078Z,68.16
2023-04-01T12:24:00.211Z,68.04
2023-04-01T12:26:49.039Z,67.95
2023-04-01T12:29:52.214Z,67.78
2023-04-01T12:32:43.621Z,67.65
2023-04-01T12:35:30.373Z,67.25
2023-04-01T12:38:35.711Z,66.39
2023-04-01T12:41:43.554Z,66.38
2023-04-01T12:44:42.991Z,66.18
2023-04-01T12:47:36.715Z,65.95
2023-04-01T12:50:18.512Z,65.95
2023-04-01T12:53:36.228Z,65.10
2023-04-01T12:56:31.219Z,64.85
2023-04-01T12:59:39.072Z,64.83
2023-04-01T13:02:40.845Z,64.81
2023-04-01T13:05:37.219Z,64.65
2023-04-01T13:08:59.177Z,64.58
2023-04-01T13:11:48.977Z,64.48
2023-04-01T13:14:30.723Z,64.44
2023-04-01T13:17:08.102Z,64.34
2023-04-01T13:20:35.630Z,64.32
2023-04-01T13:23:29.063Z,64.48
2023-04-01T13:26:16.821Z,64.40
2023-04-01T13:28:57.132Z,64.32
2023-04-01T13:31:56.843Z,64.28
2023-04-01T13:34:58.484Z,64.21
2023-04-01T13:37:51.412Z,64.07
2023-04-01T13:40:39.350Z,64.11
2023-04-01T13:43:40.081Z,63.80
2023-04-01T13:46:51.742Z,63.58
2023-04-01T13:49:51.582Z,63.32
2023-04-01T13:52:47.240Z,63.14
2023-04-01T13:55:42.151Z,63.52
2023-04-01T13:58:39.870Z,63.43
2023-04-01T14:01:28.291Z,63.43
2023-04-01T14:04:18.082Z,63.67
2023-04-01T14:07:03.420Z,63.42
2023-04-01T14:09:42.477Z,63.36
2023-04-01T14:12:48.729Z,63.44
2023-04-01T14:15:30.829Z,63.59
2023-04-01T14:18:29.420Z,63.94
2023-04-01T14:21:25.063Z,64.11
2023-04-01T14:24:21.794Z,64.37
2023-04-01T14:27:35.267Z,65.12
2023-04-01T14:30:21.493Z,65.51
2023-04-01T14:33:29.618Z,64.99
2023-04-01T14:36:35.586Z,64.94
2023-04-01T14:39:37.628Z,65.32
2023-04-01T14:42:22.800Z,65.56
2023-04-01T14:45:13.010Z,65.90
2023-04-01T14:48:20.908Z,65.70
2023-04-01T14:51:05.087Z,66.58
2023-04-01T14:53:47.422Z,66.56
2023-04-01T14:56:46.496Z,66.87
2023-04-01T14:59:31.660Z,69.18
2023-04-01T15:02:32.413Z,70.06
2023-04-01T15:05:30.231Z,69.05
2023-04-01T15:08:23.845Z,68.10
2023-04-01T15:11:30.908Z,68.04
2023-04-01T15:14:24.265Z,70.94
2023-04-01T15:17:35.677Z,71.04
2023-04-01T15:20:37.784Z,69.30
2023-04-01T15:23:29.910Z,69.25
2023-04-01T15:26:17.115Z,70.27
2023-04-01T15:29:13.384Z,73.38
2023-04-01T15:32:05.089Z,72.57
2023-04-01T15:35:11.115Z,72.91
2023-04-01T15:37:57.385Z,72.08
2023-04-01T15:40:56.765Z,73.75
2023-04-01T15:43:50.139Z,75.89
2023-04-01T15:46:50.559Z,77.20
2023-04-01T15:49:42.619Z,76.16
2023-04-01T15:52:39.373Z,75.58
2023-04-01T15:55:39.417Z,76.78
2023-04-01T15:58:42.392Z,75.07
2023-04-01T16:01:26.357Z,75.17
2023-04-01T16:04:33.831Z,74.64
2023-04-01T16:07:29.606Z,73.37
2023-04-01T16:10:24.917Z,72.70
2023-04-01T16:13:32.520Z,75.10
2023-04-01T16:16:31.910Z,75.83
2023-04-01T16:19:36.454Z,75.81
2023-04-01T16:22:31.496Z,75.09
2023-04-01T16:25:22.014Z,74.55
2023-04-01T16:27:55.858Z,74.53
2023-04-01T16:31:02.768Z,74.91
2023-04-01T16:33:56.390Z,76.46
2023-04-01T16:36:46.553Z,76.36
2023-04-01T16:39:48.239Z,76.03
2023-04-01T16:42:20.263Z,78.10
2023-04-01T16:45:33.517Z,78.52
2023-04-01T16:48:23.469Z,77.79
2023-04-01T16:51:13.194Z,78.38
2023-04-01T16:53:51.030Z,76.46
2023-04-01T16:56:31.125Z,75.91
2023-04-01T16:59:11.719Z,75.99
2023-04-01T17:01:56.480Z,75.71
2023-04-01T17:04:47.243Z,75.74
2023-04-01T17:07:38.102Z,77.38
2023-04-01T17:10:30.876Z,77.91
2023-04-01T17:13:32.477Z,76.91
2023-04-01T17:16:28.780Z,77.30
2023-04-01T17:19:22.471Z,77.41
2023-04-01T17:22:16.858Z,76.70
2023-04-01T17:25:07.809Z,75.48
2023-04-01T17:28:05.522Z,78.02
2023-04-01T17:30:55.389Z,79.10
2023-04-01T17:33:46.415Z,77.95
2023-04-01T17:36:36.784Z,76.87
2023-04-01T17:39:36.192Z,77.13
2023-04-01T17:42:24.030Z,78.55
2023-04-01T17:45:14.287Z,77.84
2023-04-01T17:48:04.748Z,79.29
2023-04-01T17:50:53.556Z,82.13
2023-04-01T17:53:39.357Z,80.51
2023-04-01T17:56:57.321Z,79.49
2023-04-01T17:59:41.486Z,78.46
2023-04-01T18:02:27.473Z,78.36
2023-04-01T18:05:30.690Z,77.90
2023-04-01T18:08:14.629Z,80.59
2023-04-01T18:11:03.607Z,79.66
2023-04-01T18:13:36.798Z,79.71
2023-04-01T18:16:19.345Z,80.41
2023-04-01T18:19:12.246Z,77.98
2023-04-01T18:22:28.878Z,79.33
2023-04-01T18:25:21.653Z,79.41
2023-04-01T18:28:03.580Z,78.93
2023-04-01T18:30:39.334Z,78.87
2023-04-01T18:33:25.568Z,78.06
2023-04-01T18:36:06.196Z,78.74
2023-04-01T18:38:52.059Z,78.22
2023-04-01T18:41:59.595Z,77.65
2023-04-01T18:44:47.134Z,77.03
2023-04-01T18:47:48.621Z,77.08
2023-04-01T18:50:48.670Z,78.68
2023-04-01T18:53:41.920Z,79.81
2023-04-01T18:56:28.096Z,79.79
2023-04-01T18:59:45.287Z,78.81
2023-04-01T19:02:41.313Z,78.15
2023-04-01T19:05:33.693Z,78.26
2023-04-01T19:08:37.735Z,78.85
2023-04-01T19:11:26.016Z,78.89
2023-04-01T19:14:21.885Z,78.32
2023-04-01T19:17:13.020Z,78.28
2023-04-01T19:20:00.997Z,78.16
2023-04-01T19:22:39.599Z,77.96
2023-04-01T19:25:29.885Z,78.44
2023-04-01T19:28:38.388Z,81.40
2023-04-01T19:31:26.942Z,79.72
2023-04-01T19:34:25.303Z,79.75
2023-04-01T19:37:12.874Z,82.26
2023-04-01T19:40:11.994Z,80.82
2023-04-01T19:43:00.979Z,80.83
2023-04-01T19:45:50.484Z,80.22
2023-04-01T19:48:29.260Z,79.83
2023-04-01T19:51:18.308Z,80.19
2023-04-01T19:54:17.914Z,79.84
2023-04-01T19:57:28.373Z,79.35
2023-04-01T20:00:19.982Z,78.48
2023-04-01T20:03:16.619Z,78.58
2023-04-01T20:06:18.455Z,78.79
2023-04-01T20:09:17.195Z,78.81
2023-04-01T20:12:10.544Z,78.69
2023-04-01T20:15:02.336Z,78.41
2023-04-01T20:18:03.020Z,78.32
2023-04-01T20:20:37.305Z,78.47
2023-04-01T20:23:29.585Z,78.18
2023-04-01T20:26:08.150Z,78.24
2023-04-01T20:28:50.590Z,78.45
2023-04-01T20:31:53.600Z,78.28
2023-04-01T20:34:37.853Z,78.30
2023-04-01T20:37:41.287Z,78.11
2023-04-01T20:40:40.412Z,77.55
2023-04-01T20:43:27.943Z,77.56
2023-04-01T20:46:33.784Z,77.60
2023-04-01T20:49:37.948Z,77.85
2023-04-01T20:52:51.423Z,77.68
2023-04-01T20:55:59.448Z,77.57
2023-04-01T20:58:41.691Z,77.55
2023-04-01T21:01:37.823Z,77.41
2023-04-01T21:04:33.643Z,77.63
2023-04-01T21:07:38.173Z,77.52
2023-04-01T21:10:19.011Z,77.51
2023-04-01T21:13:15.767Z,77.44
2023-04-01T21:15:58.572Z,77.42
2023-04-01T21:19:08.058Z,77.56
2023-04-01T21:22:08.911Z,77.61
2023-04-01T21:24:56.668Z,77.56
2023-04-01T21:28:09.260Z,77.55
2023-04-01T21:31:10.121Z,77.50
2023-04-01T21:34:25.806Z,77.55
2023-04-01T21:37:21.386Z,77.58
2023-04-01T21:40:08.311Z,77.68
2023-04-01T21:43:08.990Z,78.14
2023-04-01T21:46:11.709Z,79.09
2023-04-01T21:48:57.019Z,79.33
2023-04-01T21:51:53.108Z,79.23
2023-04-01T21:54:44.932Z,79.85
2023-04-01T21:57:36.108Z,79.18
2023-04-01T22:00:23.760Z,79.22
2023-04-01T22:03:35.167Z,79.36
2023-04-01T22:06:34.401Z,80.62
2023-04-01T22:09:20.601Z,80.06
2023-04-01T22:12:04.228Z,80.05
2023-04-01T22:15:15.573Z,80.08
2023-04-01T22:17:56.459Z,80.69
2023-04-01T22:20:51.238Z,81.98
2023-04-01T22:23:26.773Z,80.88
2023-04-01T22:26:19.543Z,83.26
2023-04-01T22:29:17.628Z,83.29
2023-04-01T22:32:01.275Z,82.17
2023-04-01T22:34:51.120Z,83.98
2023-04-01T22:37:30.330Z,84.24
2023-04-01T22:40:23.555Z,83.72
2023-04-01T22:43:07.955Z,85.32
2023-04-01T22:46:08.446Z,85.64
2023-04-01T22:48:53.448Z,86.54
2023-04-01T22:51:46.326Z,85.32
2023-04-01T22:54:52.018Z,85.71
2023-04-01T22:57:34.897Z,87.39
2023-04-01T23:00:33.068Z,87.44
2023-04-01T23:03:31.565Z,87.20
2023-04-01T23:06:07.040Z,85.77
2023-04-01T23:09:01.855Z,84.98
2023-04-01T23:11:40.390Z,84.93
2023-04-01T23:14:27.938Z,84.08
2023-04-01T23:17:14.082Z,83.43
2023-04-01T23:20:06.002Z,83.45
2023-04-01T23:23:11.103Z,83.31
2023-04-01T23:25:55.035Z,82.96
2023-04-01T23:28:47.119Z,82.23
2023-04-01T23:31:39.495Z,82.01
2023-04-01T23:34:17.521Z,82.77
2023-04-01T23:36:53.732Z,83.48
2023-04-01T23:39:38.508Z,83.05
2023-04-01T23:42:27.507Z,82.45
2023-04-01T23:45:03.715Z,82.28
2023-04-01T23:47:40.675Z,82.23
2023-04-01T23:50:26.247Z,83.32
2023-04-01T23:53:06.939Z,83.51
2023-04-01T23:55:45.810Z,82.10
2023-04-01T23:58:25.671Z,82.93
